Nearby METAR Reports

CWGD - Goderich (autob), Ontario, Canada
Distance from station: SW 47km
Updated: 06/19/2019 7:00pm

 Wind from NNE
Wind: NNE 7 km/h
Temperature: 19°C
Dew Point: 16°C
Humidity: 83%
2019/06/19 23:00 CWGD 192300Z AUTO 02004KT 19/16 RMK AO1 SLP060 T01870155 56013
CWLS - Mount Forest(Mar, Ontario, Canada
Distance from station: ESE 53km
Updated: 06/19/2019 7:00pm

 Wind from N
Wind: N 9 km/h
Temperature: 21°C
Dew Point: 16°C
Humidity: 73%
2019/06/19 23:00 CWLS 192300Z AUTO 01005KT 21/16 RMK AO1 SLP070 T02090159 56009
 
CYVV - Wiarton Air, Ontario, Canada
Distance from station: NNE 75km
Updated: 06/19/2019 6:00pm
Mostly cloudy
Mostly cloudy
 Wind from N
Wind: N 7 km/h
Temperature: 17°C
Dew Point: 13°C
Humidity: 77%
Barometer: 1007.5 hPa
Clouds: Mostly cloudy
Visibility: 24 km
Cloud details: Partly cloudy 1829 m
Mostly cloudy 3658 m
2019/06/19 22:00 CYVV 192200Z 36004KT 340V050 15SM SCT060 BKN120 17/13 A2975 RMK SC4AC3 SLP077 DENSITY ALT 1300FT
CZEL - Elora Rcs, Ontario, Canada
Distance from station: ESE 93km
Updated: 06/19/2019 7:00pm

 Wind from WSW
Wind: WSW 2 km/h
Temperature: 24°C
Dew Point: 12°C
Humidity: 47%
2019/06/19 23:00 CZEL 192300Z AUTO 25001KT 24/12 RMK AO1 SLP061 T02440123 56015
 
CWCO - Collingwood (aut, Ontario, Canada
Distance from station: ENE 104km
Updated: 06/19/2019 7:00pm

 Wind from NNW
Wind: NNW 6 km/h
Temperature: 17°C
Dew Point: 12°C
Humidity: 73%
2019/06/19 23:00 CWCO 192300Z AUTO 34003KT 17/12 RMK AO1 SLP067 T01670120 58009
CYKF - Waterloo Well, Ontario, Canada
Distance from station: SE 107km
Updated: 06/19/2019 7:00pm
Partly cloudy
Partly cloudy
 Wind from ENE
Wind: ENE 7 km/h
Temperature: 25°C
Dew Point: 12°C
Humidity: 44%
Barometer: 1005.8 hPa
Clouds: Partly cloudy
Visibility: 14 km
Cloud details: Partly cloudy 5486 m
2019/06/19 23:00 CYKF 192300Z AUTO 07004KT 050V120 9SM SCT180 25/12 A2970 RMK SLP057 DENSITY ALT 2600FT
 
KP58 - Port Hope, Michigan, USA
Distance from station: W 114km
Updated: 06/19/2019 6:51pm

 Wind from N
Wind: N 9 km/h
Temperature: 12°C
Dew Point: 12°C
Humidity: 100%
Barometer: 1007.5 hPa
2019/06/19 22:51 KP58 192251Z AUTO 01005KT 12/12 A2975 RMK AO1 SLP074 P0002 T01220117
CYBN - Borden, Ontario, Canada
Distance from station: E 118km
Updated: 06/19/2019 7:00pm
Few Clouds
Few Clouds
 Wind from NW
Wind: NW 7 km/h
Temperature: 19°C
Dew Point: 12°C
Humidity: 64%
Barometer: 1006.8 hPa
Clouds: Few Clouds
Visibility: 14 km
Cloud details: Few Clouds 2499 m
Few Clouds 2957 m
2019/06/19 23:00 CYBN 192300Z AUTO 32004KT 290V350 9SM FEW082 FEW097 19/12 A2973 RMK SLP068
 
CYXU - London Airport, Ontario, Canada
Distance from station: S 123km
Updated: 06/19/2019 7:00pm
Mostly cloudy
Mostly cloudy
 Wind from varies
Wind: varies 4 km/h
Temperature: 25°C
Dew Point: 15°C
Humidity: 54%
Barometer: 1005.4 hPa
Clouds: Mostly cloudy
Visibility: 24 km
Cloud details: Partly cloudy 1798 m
Partly cloudy 2134 m
Mostly cloudy 7620 m
2019/06/19 23:00 CYXU 192300Z VRB02KT 15SM SCT059 SCT070 BKN250 25/15 A2969 RMK CU3AC1CI1 SLP053 DENSITY ALT 2600FT
CXET - Egbert Cs, Ontario, Canada
Distance from station: E 128km
Updated: 06/19/2019 7:00pm

 Wind from NNW
Wind: NNW 17 km/h
Temperature: 19°C
Dew Point: 11°C
Humidity: 60%
2019/06/19 23:00 CXET 192300Z AUTO 34009KT 19/11 RMK AO1 SLP064 T01890112 56010
 
CWMZ - Western Isl (map, Ontario, Canada
Distance from station: NE 129km
Updated: 06/19/2019 6:00pm

 Wind from NNE
Wind: NNE 20 km/h
Temperature: 14°C
Dew Point: 13°C
Humidity: 94%
2019/06/19 22:00 CWMZ 192200Z AUTO 03011KT 14/13 RMK AO1 SLP072 T01350132 58013
KBAX - Bad Axe, Michigan, USA
Distance from station: WSW 133km
Updated: 06/19/2019 6:55pm
Overcast
Overcast
 Wind from ENE
Wind: ENE 9 km/h
Temperature: 16°C
Dew Point: 14°C
Humidity: 88%
Barometer: 1007.1 hPa
Clouds: Overcast
Visibility: 16 km
Cloud details: Partly cloudy 1524 m
Overcast 1981 m
2019/06/19 22:55 KBAX 192255Z AUTO 06005KT 10SM SCT050 OVC065 16/14 A2974 RMK AO2 T01620139
 
CWWX - Cove Island (map, Ontario, Canada
Distance from station: NNW 137km
Updated: 06/19/2019 6:00pm

 Wind from SSE
Wind: SSE 7 km/h
Temperature: 11°C
Dew Point: 10°C
Humidity: 94%
2019/06/19 22:00 CWWX 192200Z AUTO 15004KT 11/10 RMK AO1 SLP079 T01070098 57010
CYZR - Sarnia Airport, Ontario, Canada
Distance from station: SSW 144km
Updated: 06/19/2019 7:00pm
Overcast
Overcast
 Wind from NNW
Wind: NNW 19 km/h
Temperature: 15°C
Dew Point: 13°C
Humidity: 88%
Barometer: 1006.1 hPa
Clouds: Overcast
Visibility: 14 km
Cloud details: Overcast 2134 m
2019/06/19 23:00 CYZR 192300Z AUTO 34010KT 9SM OVC070 15/13 A2971 RMK SLP062 DENSITY ALT 900FT
 
CXHM - Hamilton Rbg Cs, Ontario, Canada
Distance from station: SE 150km
Updated: 06/19/2019 4:00pm
NOT Current

 Wind from E
Wind: E 9 km/h
Temperature: 23°C
Dew Point: 14°C
Humidity: 57%
2019/06/19 20:00 CXHM 192000Z AUTO 09005KT 23/14 RMK AO1 SLP064 T02330137 58012
CYYZ - Toronto/Pearson, Ontario, Canada
Distance from station: ESE 150km
Updated: 06/19/2019 7:00pm
Mostly cloudy
Mostly cloudy
 Wind from SSE
Wind: SSE 15 km/h, Gust: 30 km/h
Temperature: 23°C
Dew Point: 15°C
Humidity: 61%
Barometer: 1005.8 hPa
Clouds: Mostly cloudy
Visibility: 24 km
Cloud details: Few Clouds 1829 m
Mostly cloudy 7925 m
2019/06/19 23:00 CYYZ 192300Z 15008G16KT 15SM FEW060 BKN260 23/15 A2970 RMK CU1CI5 SLP057 DENSITY ALT 2000FT
 
CXBI - Barrie-Oro, Ontario, Canada
Distance from station: ENE 151km
Updated: 06/19/2019 7:00pm

 Wind from NNE
Wind: NNE 9 km/h
Temperature: 23°C
Dew Point: 14°C
Humidity: 57%
2019/06/19 23:00 CXBI 192300Z AUTO 02005KT 23/14 RMK AO1 SLP065 T02290136 56014
CXDI - Delhi Cs (aut), Ontario, Canada
Distance from station: SSE 154km
Updated: 06/19/2019 7:00pm

 Wind from E
Wind: E 6 km/h
Temperature: 25°C
Dew Point: 14°C
Humidity: 51%
2019/06/19 23:00 CXDI 192300Z AUTO 10003KT 25/14 RMK AO1 SLP046 T02540139 56017
 
CWWB - Burlington Piers, Ontario, Canada
Distance from station: SE 157km
Updated: 06/19/2019 7:00pm

 Wind from NNE
Wind: NNE 6 km/h
Temperature: 18°C
Dew Point: 15°C
Humidity: 83%
2019/06/19 23:00 CWWB 192300Z AUTO 02003KT 18/15 RMK AO1 SLP056 T01800151 55012
CYHM - Hamilton Airport, Ontario, Canada
Distance from station: SE 157km
Updated: 06/19/2019 7:00pm
Partly cloudy
Partly cloudy
 Wind from E
Wind: E 9 km/h
Temperature: 25°C
Dew Point: 15°C
Humidity: 54%
Barometer: 1006.1 hPa
Clouds: Partly cloudy
Visibility: 24 km
Cloud details: Few Clouds 1524 m
Partly cloudy 7620 m
2019/06/19 23:00 CYHM 192300Z 08005KT 15SM FEW050 SCT250 25/15 A2971 RMK CU1CI3 CU TR SLP060 DENSITY ALT 2400FT